Time;durP1;ratioP1;P1;durP2;ratioP2;P2;SDS_P1;SDS_P2;PMS_P1;PMS_P2;Temp;Humidity;BMP_temperature;BMP_pressure;BME280_temperature;BME280_humidity;BME280_pressure;Samples;Min_cycle;Max_cycle;Signal;HPM_P1;HPM_P2
2021/06/19 00:01:13;;;;;;;2.13;1.30;;;23.10;99.90;;;;;;20895583;28;20233;-69
2021/06/19 00:11:19;;;;;;;0.63;0.63;;;22.90;99.90;;;;;;20910768;28;20456;-69
2021/06/19 00:21:22;;;;;;;2.83;0.93;;;22.70;99.90;;;;;;20911792;28;20227;-69
2021/06/19 00:31:27;;;;;;;1.07;0.80;;;22.80;99.90;;;;;;20910874;28;20284;-69
2021/06/19 00:41:31;;;;;;;1.40;1.10;;;22.50;99.90;;;;;;20910325;28;20210;-69
2021/06/19 00:51:36;;;;;;;2.47;1.40;;;22.50;99.90;;;;;;20909305;28;20229;-68
2021/06/19 01:01:41;;;;;;;1.57;1.27;;;22.50;99.90;;;;;;20916482;28;20245;-69
2021/06/19 01:11:47;;;;;;;1.57;1.47;;;22.40;99.90;;;;;;20905498;28;20225;-68
2021/06/19 01:21:53;;;;;;;1.60;1.47;;;22.40;99.90;;;;;;20907115;28;20221;-68
2021/06/19 01:31:59;;;;;;;1.23;0.80;;;22.30;99.90;;;;;;20888282;28;20499;-69
2021/06/19 01:42:02;;;;;;;5.00;2.47;;;22.40;99.90;;;;;;20905990;28;20225;-68
2021/06/19 01:52:08;;;;;;;1.63;1.13;;;22.40;99.90;;;;;;20887714;28;20201;-69
2021/06/19 02:02:12;;;;;;;1.43;1.20;;;22.40;99.90;;;;;;20904231;28;20298;-68
2021/06/19 02:12:17;;;;;;;1.03;1.00;;;22.40;99.90;;;;;;20903259;28;20197;-69
2021/06/19 02:22:22;;;;;;;2.27;1.47;;;22.30;99.90;;;;;;20902339;28;20243;-69
2021/06/19 02:32:27;;;;;;;2.33;1.07;;;22.50;99.90;;;;;;20901599;28;20201;-69
2021/06/19 02:42:31;;;;;;;0.93;0.93;;;22.40;99.90;;;;;;20901561;28;20617;-69
2021/06/19 02:52:40;;;;;;;3.13;1.23;;;22.00;99.90;;;;;;20901057;28;20730;-69
2021/06/19 03:02:44;;;;;;;3.40;1.57;;;22.10;99.90;;;;;;20900832;28;20661;-67
2021/06/19 03:12:50;;;;;;;6.33;0.87;;;22.20;99.90;;;;;;20899837;28;20193;-68
2021/06/19 03:22:55;;;;;;;10.30;1.63;;;22.40;99.90;;;;;;20915857;28;20225;-69
2021/06/19 03:33:00;;;;;;;4.80;1.13;;;22.20;99.90;;;;;;20915655;28;20208;-69
2021/06/19 03:43:03;;;;;;;1.30;1.10;;;22.40;99.90;;;;;;20914826;28;20213;-69
2021/06/19 03:53:08;;;;;;;1.60;1.03;;;22.40;99.90;;;;;;20896147;28;20209;-69
2021/06/19 04:03:12;;;;;;;1.03;0.90;;;22.40;99.90;;;;;;20912959;28;20324;-69
2021/06/19 04:13:17;;;;;;;15.90;7.37;;;22.40;99.90;;;;;;20911158;28;20212;-68
2021/06/19 04:23:23;;;;;;;0.70;0.70;;;22.40;99.90;;;;;;20905503;28;20308;-68
2021/06/19 04:33:28;;;;;;;3.17;1.60;;;22.40;99.90;;;;;;20904982;28;20588;-68
2021/06/19 04:43:39;;;;;;;1.07;1.07;;;22.50;99.90;;;;;;20909068;28;20243;-69
2021/06/19 04:53:44;;;;;;;1.17;1.07;;;22.50;99.90;;;;;;20907991;28;20537;-68
2021/06/19 05:03:48;;;;;;;1.47;1.37;;;22.70;99.90;;;;;;20889642;28;20229;-68
2021/06/19 05:13:53;;;;;;;2.67;2.07;;;22.70;99.90;;;;;;20888990;28;20205;-68
2021/06/19 05:23:57;;;;;;;4.53;2.40;;;22.60;99.90;;;;;;20904888;28;20639;-69
2021/06/19 05:34:02;;;;;;;3.03;1.40;;;22.70;99.90;;;;;;20902486;28;20225;-69
2021/06/19 05:44:08;;;;;;;1.77;1.33;;;22.90;99.90;;;;;;20884692;28;20318;-69
2021/06/19 05:54:13;;;;;;;3.23;1.60;;;23.10;99.90;;;;;;20903083;28;20587;-69
2021/06/19 06:04:16;;;;;;;1.05;0.90;;;23.30;99.90;;;;;;20903168;28;20344;-69
2021/06/19 06:14:22;;;;;;;5.20;0.95;;;23.50;99.90;;;;;;20901023;28;20282;-69
2021/06/19 06:24:26;;;;;;;2.83;1.75;;;23.70;99.90;;;;;;20900806;28;20720;-69
2021/06/19 06:34:31;;;;;;;0.73;0.73;;;24.10;99.90;;;;;;20897975;28;20650;-69
2021/06/19 06:44:34;;;;;;;1.90;1.02;;;24.40;99.90;;;;;;20899030;28;20752;-70
2021/06/19 06:54:39;;;;;;;1.48;1.38;;;24.50;99.90;;;;;;20898575;28;20276;-69
2021/06/19 07:04:43;;;;;;;3.35;1.52;;;24.70;99.90;;;;;;20878877;28;20263;-69
2021/06/19 07:14:48;;;;;;;4.07;1.75;;;24.90;99.90;;;;;;20879202;28;20686;-72
2021/06/19 07:24:51;;;;;;;2.55;1.80;;;25.00;99.90;;;;;;20897347;28;20226;-72
2021/06/19 07:34:56;;;;;;;2.70;1.30;;;25.20;99.90;;;;;;20896701;28;20299;-71
2021/06/19 07:45:00;;;;;;;1.77;1.15;;;25.30;99.90;;;;;;20876843;28;20262;-69
2021/06/19 07:55:06;;;;;;;0.55;0.55;;;25.60;99.90;;;;;;20888949;28;20320;-72
2021/06/19 08:05:11;;;;;;;0.73;0.63;;;25.90;99.90;;;;;;20856299;28;20316;-72
2021/06/19 08:15:16;;;;;;;2.05;1.50;;;26.10;99.90;;;;;;20868271;28;20198;-71
2021/06/19 08:25:20;;;;;;;10.20;1.45;;;26.00;99.90;;;;;;20842260;28;20253;-70
2021/06/19 08:35:25;;;;;;;2.42;1.88;;;26.10;99.90;;;;;;20826382;28;20194;-70
2021/06/19 08:45:32;;;;;;;1.67;1.58;;;26.20;99.90;;;;;;20825856;28;20378;-70
2021/06/19 08:55:38;;;;;;;2.85;1.20;;;26.50;99.90;;;;;;20824782;28;20652;-70
2021/06/19 09:05:42;;;;;;;2.13;1.52;;;26.20;99.90;;;;;;20844450;28;20710;-71
2021/06/19 09:16:01;;;;;;;3.10;2.08;;;27.50;99.90;;;;;;20827232;28;20229;-72
2021/06/19 09:26:12;;;;;;;9.33;2.70;;;26.80;99.90;;;;;;20878224;28;20524;-73
2021/06/19 09:36:42;;;;;;;5.78;1.77;;;26.90;99.90;;;;;;20887140;28;20244;-69
2021/06/19 09:46:58;;;;;;;1.50;1.40;;;27.20;99.90;;;;;;20903666;28;20307;-69
2021/06/19 09:57:03;;;;;;;2.35;2.15;;;27.10;99.90;;;;;;20901767;28;20288;-69
2021/06/19 10:07:07;;;;;;;2.90;2.35;;;26.60;99.90;;;;;;20900809;28;20229;-69
2021/06/19 10:17:17;;;;;;;1.80;1.70;;;27.40;99.90;;;;;;20900232;28;20208;-68
2021/06/19 10:27:21;;;;;;;6.50;2.30;;;27.80;99.90;;;;;;20830195;28;20320;-68
2021/06/19 10:37:31;;;;;;;1.92;1.70;;;28.10;99.90;;;;;;20815996;28;20204;-69
2021/06/19 10:47:55;;;;;;;2.15;1.35;;;27.50;99.90;;;;;;20816894;28;20221;-69
2021/06/19 10:58:19;;;;;;;3.00;1.75;;;27.90;99.90;;;;;;20818788;28;20220;-68
2021/06/19 11:08:23;;;;;;;12.60;2.45;;;28.00;99.90;;;;;;20820026;28;20236;-69
2021/06/19 11:18:57;;;;;;;5.82;2.97;;;27.30;99.90;;;;;;20842200;28;20650;-68
2021/06/19 11:29:37;;;;;;;4.95;2.63;;;28.40;99.90;;;;;;20846783;28;20236;-68
2021/06/19 11:39:42;;;;;;;2.17;0.80;;;29.40;99.90;;;;;;20894790;28;20193;-67
2021/06/19 11:49:47;;;;;;;5.43;1.55;;;27.80;99.90;;;;;;20913578;28;20682;-68
2021/06/19 12:00:20;;;;;;;2.58;2.10;;;27.70;99.90;;;;;;20909445;28;20679;-68
2021/06/19 12:10:26;;;;;;;4.22;2.00;;;27.50;99.90;;;;;;20799650;28;20258;-69
2021/06/19 12:20:31;;;;;;;1.48;1.38;;;27.70;99.90;;;;;;20841465;28;20288;-74
2021/06/19 12:30:35;;;;;;;2.30;1.42;;;27.20;99.90;;;;;;20910959;28;20682;-69
2021/06/19 12:40:42;;;;;;;1.02;0.95;;;27.70;99.90;;;;;;20912025;28;20197;-70
2021/06/19 12:50:46;;;;;;;0.95;0.90;;;27.40;99.90;;;;;;20901544;28;20232;-69
2021/06/19 13:00:53;;;;;;;9.52;1.85;;;26.60;99.90;;;;;;20917135;28;20347;-70
2021/06/19 13:11:00;;;;;;;1.58;0.95;;;26.60;99.90;;;;;;20908275;28;20746;-69
2021/06/19 13:21:12;;;;;;;1.90;1.77;;;26.10;99.90;;;;;;20909152;28;20201;-70
2021/06/19 13:31:20;;;;;;;1.65;1.52;;;26.60;99.90;;;;;;20902116;28;20569;-72
2021/06/19 13:41:27;;;;;;;14.10;2.13;;;28.00;99.90;;;;;;20865962;28;20197;-69
2021/06/19 13:51:32;;;;;;;3.97;2.20;;;28.80;99.90;;;;;;20863381;28;20225;-70
2021/06/19 14:01:36;;;;;;;1.75;1.63;;;28.10;99.90;;;;;;20844431;28;20260;-70
2021/06/19 14:11:41;;;;;;;2.03;1.40;;;28.90;99.90;;;;;;20865485;28;20248;-70
2021/06/19 14:21:46;;;;;;;1.95;1.30;;;28.00;99.90;;;;;;20880280;28;20216;-70
2021/06/19 14:31:49;;;;;;;1.70;1.60;;;27.70;99.90;;;;;;20820599;28;20240;-68
2021/06/19 14:41:54;;;;;;;2.35;1.38;;;31.10;99.90;;;;;;20819328;28;20194;-68
2021/06/19 14:51:58;;;;;;;1.63;1.30;;;30.40;99.90;;;;;;20819026;28;20245;-68
2021/06/19 15:02:03;;;;;;;2.72;1.40;;;28.40;99.90;;;;;;20818428;28;20580;-71
2021/06/19 15:12:07;;;;;;;2.10;1.05;;;27.80;99.90;;;;;;20808867;28;20283;-70
2021/06/19 15:22:12;;;;;;;1.95;1.30;;;26.80;99.90;;;;;;20871783;28;20202;-68
2021/06/19 15:32:17;;;;;;;1.58;1.48;;;26.90;99.90;;;;;;20925581;28;20204;-71
2021/06/19 15:42:22;;;;;;;0.85;0.85;;;28.00;99.90;;;;;;20926585;28;20194;-69
2021/06/19 15:52:26;;;;;;;2.55;1.33;;;28.30;99.90;;;;;;20907183;28;20231;-69
2021/06/19 16:02:31;;;;;;;2.20;1.88;;;27.60;99.90;;;;;;20925198;28;20225;-69
2021/06/19 16:12:35;;;;;;;1.00;1.00;;;26.90;99.90;;;;;;20924522;28;20229;-68
2021/06/19 16:22:40;;;;;;;1.60;1.50;;;27.00;99.90;;;;;;20888542;28;20225;-68
2021/06/19 16:32:44;;;;;;;1.95;1.48;;;27.10;99.90;;;;;;20819163;28;20286;-68
2021/06/19 16:42:49;;;;;;;5.82;1.23;;;26.80;99.90;;;;;;20827420;28;20212;-69
2021/06/19 16:52:53;;;;;;;0.82;0.80;;;26.20;99.90;;;;;;20826279;28;20236;-69
2021/06/19 17:02:58;;;;;;;2.85;1.08;;;26.30;99.90;;;;;;20824747;28;20226;-69
2021/06/19 17:13:01;;;;;;;1.77;1.65;;;26.50;99.90;;;;;;20805350;28;20304;-69
2021/06/19 17:23:06;;;;;;;2.67;1.50;;;26.50;99.90;;;;;;20859417;28;20550;-70
2021/06/19 17:33:10;;;;;;;1.90;1.08;;;26.10;99.90;;;;;;20861995;28;20636;-69
2021/06/19 17:43:15;;;;;;;1.75;1.10;;;25.50;99.90;;;;;;20844875;28;20208;-69
2021/06/19 17:53:21;;;;;;;8.00;1.58;;;25.70;99.90;;;;;;20865709;28;20670;-70
2021/06/19 18:03:26;;;;;;;3.45;1.65;;;25.30;99.90;;;;;;20873159;28;20233;-69
2021/06/19 18:13:34;;;;;;;1.35;0.80;;;25.80;99.90;;;;;;20860530;28;20308;-70
2021/06/19 18:23:40;;;;;;;0.85;0.85;;;25.50;99.90;;;;;;20867146;28;20255;-69
2021/06/19 18:33:43;;;;;;;1.33;1.23;;;25.20;99.90;;;;;;20899636;28;20240;-67
2021/06/19 18:43:49;;;;;;;0.95;0.85;;;25.20;99.90;;;;;;20884836;28;20634;-68
2021/06/19 18:53:53;;;;;;;3.55;2.28;;;25.40;99.90;;;;;;20882366;28;20682;-68
2021/06/19 19:03:58;;;;;;;8.13;2.20;;;25.60;99.90;;;;;;20902960;28;20320;-68
2021/06/19 19:14:02;;;;;;;9.27;2.97;;;25.60;99.90;;;;;;20899605;28;20271;-67
2021/06/19 19:24:08;;;;;;;1.63;1.50;;;25.70;99.90;;;;;;20867486;28;20284;-68
2021/06/19 19:34:12;;;;;;;8.65;1.85;;;26.10;99.90;;;;;;20896357;28;20221;-69
2021/06/19 19:44:17;;;;;;;2.28;1.52;;;25.60;99.90;;;;;;20894356;28;20550;-70
2021/06/19 19:54:21;;;;;;;0.52;0.52;;;25.30;99.90;;;;;;20893457;28;20588;-69
2021/06/19 20:04:28;;;;;;;1.25;1.15;;;25.20;99.90;;;;;;20908267;28;20237;-69
2021/06/19 20:14:32;;;;;;;0.80;0.52;;;25.00;99.90;;;;;;20910327;28;20221;-68
2021/06/19 20:24:49;;;;;;;2.60;2.40;;;24.90;99.90;;;;;;20863345;28;20221;-68
2021/06/19 20:34:52;;;;;;;18.70;4.32;;;24.60;99.90;;;;;;20863645;28;20197;-68
2021/06/19 20:44:57;;;;;;;1.27;1.10;;;24.40;99.90;;;;;;20908645;28;20657;-67
2021/06/19 20:55:09;;;;;;;1.00;0.90;;;24.20;99.90;;;;;;20892326;28;20606;-67
2021/06/19 21:05:15;;;;;;;1.00;0.80;;;24.30;99.90;;;;;;20899666;28;20774;-67
2021/06/19 21:15:21;;;;;;;3.53;1.95;;;24.20;99.90;;;;;;20907578;28;20213;-68
2021/06/19 21:25:27;;;;;;;2.50;1.67;;;24.20;99.90;;;;;;20906794;28;20217;-68
2021/06/19 21:35:30;;;;;;;0.52;0.52;;;24.30;99.90;;;;;;20905331;28;20194;-68
2021/06/19 21:45:35;;;;;;;1.20;1.10;;;24.20;99.90;;;;;;20922029;28;20225;-68
2021/06/19 21:55:39;;;;;;;0.73;0.57;;;24.10;99.90;;;;;;20906320;28;20221;-69
2021/06/19 22:05:44;;;;;;;1.15;0.60;;;24.20;99.90;;;;;;20903659;28;20229;-67
2021/06/19 22:15:48;;;;;;;0.82;0.50;;;24.20;99.90;;;;;;20884677;28;20288;-67
2021/06/19 22:25:53;;;;;;;0.50;0.50;;;24.40;99.90;;;;;;20901560;28;20218;-68
2021/06/19 22:35:58;;;;;;;0.88;0.63;;;24.50;99.90;;;;;;20900947;28;20307;-68
2021/06/19 22:46:03;;;;;;;1.65;1.02;;;24.40;99.90;;;;;;20901863;28;20597;-68
2021/06/19 22:56:06;;;;;;;3.45;1.48;;;24.50;99.90;;;;;;20901189;28;20281;-68
2021/06/19 23:06:11;;;;;;;0.65;0.60;;;24.50;99.90;;;;;;20882772;28;20239;-67
2021/06/19 23:16:15;;;;;;;0.65;0.63;;;24.50;99.90;;;;;;20900561;28;20280;-68
2021/06/19 23:26:21;;;;;;;0.47;0.38;;;24.50;99.90;;;;;;20898947;28;20342;-68
2021/06/19 23:36:24;;;;;;;0.40;0.40;;;24.30;99.90;;;;;;20909327;28;20308;-68
2021/06/19 23:46:29;;;;;;;0.65;0.38;;;24.10;99.90;;;;;;20913420;28;20679;-69
2021/06/19 23:56:33;;;;;;;0.73;0.47;;;24.20;99.90;;;;;;20914527;28;20670;-68
